Aktuell METAR/TAF ESNU/UME

231850Z 16002KT CAVOK 04/02 Q1008=

231730Z 2318/2403 23005KT CAVOK BECMG 2320/2322 BKN006 TEMPO 2322/2403 1400 BR OVC003=
Källa: Luftfartsverket (aro.lfv.se)